Impacts METAR Board
IDs:

KAUS - Austin/Bergstrom Int, TX, US

Updated at: 2000 UTC 13 Aug 2020
Potential Impact None Slight Moderate High
Time 13/08Z 13/09Z 13/10Z 13/11Z 13/12Z 13/13Z 13/14Z 13/15Z 13/16Z 13/17Z 13/18Z 13/19Z 13/20Z
Temp80 78 78 77 78 78 83 85 90 93 96 98 99
Dewpt75 75 75 75 75 76 76 74 71 70 67 66 64
Altim29.96 29.96 29.96 29.96 29.98 29.98 30.00 30.01 30.00 29.99 29.98 29.94 29.92
VIS10 10 10 10 9 7 10 10 10 10 10 10 10
CIG-- -- -- -- -- -- 10 -- -- -- -- -- --
CoverCLRCLRCLRCLRSCTFEWBKNSCTFEWFEWCLRCLRFEW
FltCatVFRVFRVFRVFRVFRVFRMVFRVFRVFRVFRVFRVFRVFR
WX--------------------------
WDir2001801901900180210230210210210150180
WSpd4 6 5 4 0 5 7 11 8 9 10 9 6
WGst-- -- -- -- -- -- 16 -- 20 -- 15 16 15
R17/35
XWnd -1 -0 -1 -1 VRB -0 -4 -9 -4 -5 -5 4 -0
XGst -- -- -- -- -- -- -8 -- -10 -- -8 8 -0
HWnd 4 6 5 4 VRB 5 6 7 7 8 9 8 6
HGst -- -- -- -- -- -- 14 -- 17 -- 13 14 15
Raw hourly METARs
KAUS 130753Z 20004KT 10SM CLR 27/24 A2996 RMK AO2 SLP131 T02670239
KAUS 130853Z 18006KT 10SM CLR 26/24 A2996 RMK AO2 SLP131 T02560239 50002
KAUS 130953Z 19005KT 10SM CLR 26/24 A2996 RMK AO2 SLP130 T02560239
KAUS 131053Z 19004KT 10SM CLR 25/24 A2996 RMK AO2 SLP132 T02500239
KAUS 131153Z 00000KT 9SM SCT016 26/24 A2998 RMK AO2 SLP138 T02560239 10289 20250 53006
KAUS 131253Z 18005KT 7SM FEW014 FEW250 26/24 A2998 RMK AO2 SLP141 T02560244
KAUS 131353Z 21007G16KT 10SM BKN010 BKN016 28/24 A3000 RMK AO2 SLP147 T02830244
KAUS 131453Z 23011KT 10SM FEW012 SCT018 29/23 A3001 RMK AO2 SLP148 T02940233 51010
KAUS 131553Z 21008G20KT 10SM FEW020 FEW300 32/22 A3000 RMK AO2 SLP147 T03220217
KAUS 131653Z 21009KT 10SM FEW300 34/21 A2999 RMK AO2 SLP143 T03390211
KAUS 131753Z 21010G15KT 10SM CLR 36/19 A2998 RMK AO2 SLP136 T03560194 10356 20250 58011
KAUS 131853Z 15009G16KT 10SM CLR 37/19 A2994 RMK AO2 SLP125 T03670189
KAUS 131953Z 18006G15KT 10SM FEW250 37/18 A2992 RMK AO2 SLP117 T03720178



Page loaded:  20:46 UTC  |   01:46 PM Pacific  |   02:46 PM Mountain  |   03:46 PM Central  |   04:46 PM Eastern

 

ADVISORIES

FORECASTS

FORECASTS

OBSERVATIONS

USER TOOLS

ABOUT US